createdAt,value
2019-03-22T00:02:32.837Z,101877.45
2019-03-22T00:05:36.161Z,101877.67
2019-03-22T00:08:39.481Z,101877.90
2019-03-22T00:11:42.856Z,101871.17
2019-03-22T00:14:46.847Z,101869.22
2019-03-22T00:17:50.189Z,101871.42
2019-03-22T00:20:53.469Z,101874.97
2019-03-22T00:23:56.771Z,101868.24
2019-03-22T00:27:00.182Z,101864.90
2019-03-22T00:30:06.602Z,101859.00
2019-03-22T00:33:09.930Z,101857.36
2019-03-22T00:36:13.231Z,101867.86
2019-03-22T00:39:16.565Z,101864.84
2019-03-22T00:42:19.865Z,101867.63
2019-03-22T00:45:23.223Z,101863.82
2019-03-22T00:48:26.571Z,101865.93
2019-03-22T00:51:29.877Z,101874.29
2019-03-22T00:54:33.200Z,101871.69
2019-03-22T00:57:36.565Z,101867.11
2019-03-22T01:00:39.861Z,101859.05
2019-03-22T01:03:43.178Z,101864.17
2019-03-22T01:06:46.482Z,101858.23
2019-03-22T01:09:49.799Z,101860.25
2019-03-22T01:12:53.119Z,101865.83
2019-03-22T01:15:56.434Z,101868.00
2019-03-22T01:18:59.721Z,101864.33
2019-03-22T01:22:03.039Z,101864.07
2019-03-22T01:25:07.003Z,101859.40
2019-03-22T01:28:10.325Z,101858.89
2019-03-22T01:31:13.641Z,101854.13
2019-03-22T01:34:17.113Z,101853.94
2019-03-22T01:37:20.437Z,101855.55
2019-03-22T01:40:23.735Z,101845.53
2019-03-22T01:43:27.042Z,101860.02
2019-03-22T01:46:30.363Z,101855.92
2019-03-22T01:49:33.677Z,101857.57
2019-03-22T01:52:37.424Z,101855.69
2019-03-22T01:55:40.735Z,101856.09
2019-03-22T01:58:44.072Z,101860.09
2019-03-22T02:01:47.387Z,101854.59
2019-03-22T02:04:50.763Z,101866.89
2019-03-22T02:07:54.030Z,101867.05
2019-03-22T02:10:57.311Z,101864.63
2019-03-22T02:14:00.902Z,101863.30
2019-03-22T02:17:04.239Z,101857.48
2019-03-22T02:20:08.478Z,101857.74
2019-03-22T02:23:11.791Z,101853.61
2019-03-22T02:26:15.108Z,101852.58
2019-03-22T02:29:18.422Z,101856.14
2019-03-22T02:32:21.754Z,101856.36
2019-03-22T02:35:28.860Z,101855.28
2019-03-22T02:38:30.091Z,101855.71
2019-03-22T02:41:33.381Z,101856.87
2019-03-22T02:44:36.707Z,101853.98
2019-03-22T02:47:40.042Z,101850.54
2019-03-22T02:50:43.339Z,101839.45
2019-03-22T02:53:46.662Z,101842.88
2019-03-22T02:56:50.139Z,101839.41
2019-03-22T02:59:53.535Z,101841.38
2019-03-22T03:02:56.853Z,101836.52
2019-03-22T03:06:00.178Z,101839.30
2019-03-22T03:09:04.620Z,101849.36
2019-03-22T03:12:07.953Z,101849.38
2019-03-22T03:15:15.633Z,101842.83
2019-03-22T03:18:18.960Z,101846.23
2019-03-22T03:21:22.279Z,101850.81
2019-03-22T03:24:25.616Z,101854.36
2019-03-22T03:27:28.928Z,101854.23
2019-03-22T03:30:32.257Z,101854.16
2019-03-22T03:33:35.567Z,101854.00
2019-03-22T03:36:38.873Z,101867.23
2019-03-22T03:39:42.196Z,101849.58
2019-03-22T03:42:45.593Z,101861.55
2019-03-22T03:45:48.895Z,101868.81
2019-03-22T03:48:52.216Z,101869.20
2019-03-22T03:51:55.563Z,101860.19
2019-03-22T03:54:58.862Z,101868.40
2019-03-22T03:58:02.186Z,101864.77
2019-03-22T04:01:05.490Z,101862.77
2019-03-22T04:04:08.830Z,101864.92
2019-03-22T04:07:12.171Z,101859.60
2019-03-22T04:10:15.472Z,101861.23
2019-03-22T04:13:18.801Z,101850.92
2019-03-22T04:16:22.121Z,101846.14
2019-03-22T04:19:25.468Z,101851.08
2019-03-22T04:22:28.780Z,101853.27
2019-03-22T04:25:32.087Z,101858.15
2019-03-22T04:28:35.415Z,101854.98
2019-03-22T04:31:38.725Z,101856.74
2019-03-22T04:34:42.065Z,101860.70
2019-03-22T04:37:45.397Z,101865.95
2019-03-22T04:40:48.711Z,101866.33
2019-03-22T04:43:52.023Z,101871.03
2019-03-22T04:46:55.339Z,101866.03
2019-03-22T04:49:58.653Z,101868.32
2019-03-22T04:53:01.972Z,101870.52
2019-03-22T04:56:06.325Z,101874.23
2019-03-22T04:59:18.893Z,101882.64
2019-03-22T05:02:15.914Z,101874.52
2019-03-22T05:05:19.231Z,101872.98
2019-03-22T05:08:22.549Z,101869.83
2019-03-22T05:11:25.853Z,101874.00
2019-03-22T05:14:29.355Z,101879.03
2019-03-22T05:17:32.688Z,101879.81
2019-03-22T05:20:36.007Z,101881.27
2019-03-22T05:23:39.332Z,101887.52
2019-03-22T05:26:42.637Z,101896.59
2019-03-22T05:29:45.984Z,101893.75
2019-03-22T05:32:49.309Z,101891.05
2019-03-22T05:35:52.631Z,101890.70
2019-03-22T05:38:55.975Z,101892.58
2019-03-22T05:41:59.280Z,101887.19
2019-03-22T05:45:02.641Z,101885.20
2019-03-22T05:48:05.959Z,101885.61
2019-03-22T05:51:09.303Z,101883.70
2019-03-22T05:54:12.609Z,101885.83
2019-03-22T05:57:15.924Z,101888.16
2019-03-22T06:00:19.282Z,101899.05
2019-03-22T06:03:22.625Z,101895.24
2019-03-22T06:06:25.947Z,101903.16
2019-03-22T06:09:29.270Z,101904.24
2019-03-22T06:12:32.597Z,101901.66
2019-03-22T06:15:35.925Z,101896.02
2019-03-22T06:18:39.318Z,101895.67
2019-03-22T06:21:42.661Z,101893.41
2019-03-22T06:24:45.982Z,101897.77
2019-03-22T06:27:49.284Z,101887.14
2019-03-22T06:30:52.688Z,101886.30
2019-03-22T06:33:55.998Z,101889.14
2019-03-22T06:36:59.313Z,101898.84
2019-03-22T06:40:02.655Z,101910.80
2019-03-22T06:43:05.961Z,101921.73
2019-03-22T06:46:09.296Z,101920.69
2019-03-22T06:49:12.607Z,101919.67
2019-03-22T06:52:16.010Z,101905.98
2019-03-22T06:55:19.410Z,101917.80
2019-03-22T06:58:24.197Z,101915.39
2019-03-22T07:01:27.800Z,101922.05
2019-03-22T07:04:31.182Z,101919.27
2019-03-22T07:07:34.585Z,101917.92
2019-03-22T07:10:37.992Z,101919.70
2019-03-22T07:13:41.369Z,101936.82
2019-03-22T07:16:44.764Z,101937.74
2019-03-22T07:19:48.160Z,101930.13
2019-03-22T07:22:51.593Z,101924.50
2019-03-22T07:25:55.001Z,101928.72
2019-03-22T07:28:58.397Z,101936.00
2019-03-22T07:32:01.810Z,101936.70
2019-03-22T07:35:05.677Z,101926.71
2019-03-22T07:38:09.096Z,101928.92
2019-03-22T07:41:12.569Z,101927.72
2019-03-22T07:44:15.958Z,101925.09
2019-03-22T07:47:19.364Z,101924.46
2019-03-22T07:50:22.766Z,101915.70
2019-03-22T07:53:26.174Z,101918.17
2019-03-22T07:56:29.567Z,101923.55
2019-03-22T07:59:32.950Z,101921.91
2019-03-22T08:02:36.351Z,101922.64
2019-03-22T08:05:50.997Z,101905.65
2019-03-22T08:08:44.896Z,101899.42
2019-03-22T08:11:48.303Z,101898.25
2019-03-22T08:14:51.799Z,101900.84
2019-03-22T08:17:57.091Z,101908.63
2019-03-22T08:21:00.293Z,101916.23
2019-03-22T08:24:03.676Z,101916.69
2019-03-22T08:27:07.102Z,101907.16
2019-03-22T08:30:10.505Z,101919.47
2019-03-22T08:33:13.875Z,101915.48
2019-03-22T08:36:17.268Z,101919.52
2019-03-22T08:39:20.668Z,101911.50
2019-03-22T08:42:24.070Z,101905.64
2019-03-22T08:45:27.458Z,101908.98
2019-03-22T08:48:30.896Z,101902.44
2019-03-22T08:51:34.247Z,101905.31
2019-03-22T08:54:38.419Z,101905.84
2019-03-22T08:57:41.922Z,101914.44
2019-03-22T09:00:56.761Z,101910.65
2019-03-22T09:03:50.451Z,101902.36
2019-03-22T09:06:53.863Z,101895.17
2019-03-22T09:09:57.290Z,101892.97
2019-03-22T09:13:00.662Z,101893.56
2019-03-22T09:16:04.109Z,101891.11
2019-03-22T09:19:07.473Z,101894.78
2019-03-22T09:22:10.855Z,101893.52
2019-03-22T09:25:14.254Z,101894.39
2019-03-22T09:28:17.654Z,101890.45
2019-03-22T09:31:21.080Z,101888.81
2019-03-22T09:34:33.497Z,101887.17
2019-03-22T09:37:29.563Z,101888.30
2019-03-22T09:40:32.959Z,101894.40
2019-03-22T09:43:36.654Z,101894.37
2019-03-22T09:46:40.011Z,101892.20
2019-03-22T09:49:43.538Z,101874.88
2019-03-22T09:52:46.952Z,101871.08
2019-03-22T09:55:50.341Z,101873.81
2019-03-22T09:58:53.727Z,101878.66
2019-03-22T10:01:57.163Z,101876.36
2019-03-22T10:05:00.524Z,101874.20
2019-03-22T10:08:03.925Z,101862.59
2019-03-22T10:11:07.355Z,101869.42
2019-03-22T10:14:10.755Z,101868.44
2019-03-22T10:17:14.123Z,101862.94
2019-03-22T10:20:17.594Z,101859.91
2019-03-22T10:23:22.399Z,101864.17
2019-03-22T10:26:26.022Z,101852.16
2019-03-22T10:29:29.423Z,101850.61
2019-03-22T10:32:32.792Z,101854.61
2019-03-22T10:35:36.208Z,101851.69
2019-03-22T10:38:39.644Z,101839.35
2019-03-22T10:41:43.012Z,101840.36
2019-03-22T10:44:46.423Z,101833.80
2019-03-22T10:47:49.815Z,101837.74
2019-03-22T10:50:53.216Z,101831.31
2019-03-22T10:53:56.667Z,101825.12
2019-03-22T10:57:00.039Z,101820.42
2019-03-22T11:00:08.467Z,101829.73
2019-03-22T11:03:11.845Z,101821.79
2019-03-22T11:06:25.499Z,101811.48
2019-03-22T11:09:20.430Z,101808.77
2019-03-22T11:12:23.826Z,101807.90
2019-03-22T11:15:27.320Z,101807.77
2019-03-22T11:18:37.318Z,101809.14
2019-03-22T11:21:35.837Z,101798.81
2019-03-22T11:24:39.229Z,101794.08
2019-03-22T11:27:42.648Z,101799.63
2019-03-22T11:30:46.041Z,101787.28
2019-03-22T11:33:49.431Z,101774.17
2019-03-22T11:36:52.843Z,101781.23
2019-03-22T11:39:56.235Z,101781.11
2019-03-22T11:43:08.274Z,101776.65
2019-03-22T11:46:04.746Z,101764.47
2019-03-22T11:49:08.143Z,101761.58
2019-03-22T11:52:11.579Z,101758.08
2019-03-22T11:55:15.058Z,101755.86
2019-03-22T11:58:18.472Z,101750.22
2019-03-22T12:01:22.626Z,101747.99
2019-03-22T12:04:26.251Z,101753.80
2019-03-22T12:07:29.657Z,101748.51
2019-03-22T12:10:33.037Z,101736.13
2019-03-22T12:13:36.441Z,101735.88
2019-03-22T12:16:39.832Z,101734.27
2019-03-22T12:19:43.212Z,101736.34
2019-03-22T12:22:46.628Z,101736.84
2019-03-22T12:25:50.043Z,101724.56
2019-03-22T12:28:53.428Z,101719.27
2019-03-22T12:31:56.824Z,101713.22
2019-03-22T12:35:00.323Z,101711.37
2019-03-22T12:38:03.713Z,101699.78
2019-03-22T12:41:07.106Z,101695.17
2019-03-22T12:44:10.493Z,101694.37
2019-03-22T12:47:13.893Z,101683.09
2019-03-22T12:50:17.275Z,101684.17
2019-03-22T12:53:20.684Z,101677.00
2019-03-22T12:56:24.070Z,101668.81
2019-03-22T12:59:27.507Z,101662.48
2019-03-22T13:02:30.929Z,101653.87
2019-03-22T13:05:34.312Z,101660.45
2019-03-22T13:08:37.732Z,101655.50
2019-03-22T13:11:41.131Z,101649.91
2019-03-22T13:14:44.540Z,101650.31
2019-03-22T13:17:47.941Z,101649.83
2019-03-22T13:20:51.322Z,101650.91
2019-03-22T13:23:54.752Z,101643.42
2019-03-22T13:26:58.148Z,101640.20
2019-03-22T13:30:01.549Z,101635.89
2019-03-22T13:33:05.226Z,101628.05
2019-03-22T13:36:08.618Z,101628.88
2019-03-22T13:39:12.026Z,101617.73
2019-03-22T13:42:15.422Z,101618.02
2019-03-22T13:45:18.840Z,101613.37
2019-03-22T13:48:22.252Z,101609.64
2019-03-22T13:51:25.645Z,101605.45
2019-03-22T13:54:29.045Z,101609.70
2019-03-22T13:57:32.450Z,101603.16
2019-03-22T14:00:35.854Z,101599.11
2019-03-22T14:03:39.259Z,101592.28
2019-03-22T14:06:42.670Z,101587.35
2019-03-22T14:09:46.075Z,101583.84
2019-03-22T14:12:49.525Z,101577.69
2019-03-22T14:15:52.973Z,101569.64
2019-03-22T14:18:56.413Z,101571.22
2019-03-22T14:21:59.792Z,101569.45
2019-03-22T14:25:03.565Z,101564.00
2019-03-22T14:28:06.963Z,101560.48
2019-03-22T14:31:10.389Z,101562.54
2019-03-22T14:34:13.811Z,101553.95
2019-03-22T14:37:17.281Z,101559.25
2019-03-22T14:40:21.055Z,101551.56
2019-03-22T14:43:24.437Z,101544.14
2019-03-22T14:46:27.844Z,101541.34
2019-03-22T14:49:31.249Z,101541.38
2019-03-22T14:52:34.645Z,101531.41
2019-03-22T14:55:38.048Z,101529.27
2019-03-22T14:58:41.449Z,101519.58
2019-03-22T15:01:44.846Z,101516.37
2019-03-22T15:04:48.243Z,101516.08
2019-03-22T15:07:51.619Z,101502.47
2019-03-22T15:10:55.077Z,101481.93
2019-03-22T15:14:02.951Z,101490.08
2019-03-22T15:17:24.653Z,101494.25
2019-03-22T15:20:29.612Z,101494.61
2019-03-22T15:23:40.770Z,101486.52
2019-03-22T15:26:58.197Z,101477.18
2019-03-22T15:30:04.611Z,101473.30
2019-03-22T15:33:34.144Z,101464.63
2019-03-22T15:36:50.557Z,101471.50
2019-03-22T15:40:03.350Z,101466.14
2019-03-22T15:43:06.797Z,101466.91
2019-03-22T15:46:10.193Z,101461.07
2019-03-22T15:49:13.807Z,101458.62
2019-03-22T15:52:17.210Z,101455.55
2019-03-22T15:55:20.596Z,101452.50
2019-03-22T15:58:23.996Z,101450.28
2019-03-22T16:01:27.380Z,101448.47
2019-03-22T16:04:30.791Z,101444.42
2019-03-22T16:07:34.183Z,101447.19
2019-03-22T16:10:37.580Z,101442.48
2019-03-22T16:13:40.979Z,101441.77
2019-03-22T16:16:44.371Z,101442.22
2019-03-22T16:19:47.761Z,101445.02
2019-03-22T16:22:51.161Z,101445.41
2019-03-22T16:25:54.558Z,101447.98
2019-03-22T16:28:57.972Z,101442.95
2019-03-22T16:32:01.366Z,101445.93
2019-03-22T16:35:06.500Z,101448.17
2019-03-22T16:38:09.911Z,101445.31
2019-03-22T16:41:13.298Z,101450.47
2019-03-22T16:44:16.708Z,101443.87
2019-03-22T16:47:20.114Z,101445.93
2019-03-22T16:50:24.549Z,101444.98
2019-03-22T16:53:27.948Z,101446.15
2019-03-22T16:56:31.330Z,101446.83
2019-03-22T16:59:34.736Z,101448.21
2019-03-22T17:02:38.168Z,101451.94
2019-03-22T17:05:41.552Z,101452.58
2019-03-22T17:08:45.006Z,101449.64
2019-03-22T17:11:48.405Z,101451.45
2019-03-22T17:14:51.805Z,101447.34
2019-03-22T17:17:55.221Z,101445.88
2019-03-22T17:20:58.630Z,101442.30
2019-03-22T17:24:02.070Z,101446.98
2019-03-22T17:27:05.571Z,101447.50
2019-03-22T17:30:10.230Z,101450.48
2019-03-22T17:33:13.623Z,101452.62
2019-03-22T17:36:17.025Z,101449.11
2019-03-22T17:39:20.462Z,101448.91
2019-03-22T17:42:23.833Z,101450.50
2019-03-22T17:45:27.222Z,101455.34
2019-03-22T17:48:30.659Z,101460.43
2019-03-22T17:51:34.085Z,101458.52
2019-03-22T17:54:37.477Z,101465.27
2019-03-22T17:57:40.848Z,101465.98
2019-03-22T18:00:44.860Z,101459.11
2019-03-22T18:03:48.240Z,101461.65
2019-03-22T18:06:51.644Z,101457.59
2019-03-22T18:09:55.038Z,101456.20
2019-03-22T18:12:58.341Z,101461.29
2019-03-22T18:16:01.742Z,101461.19
2019-03-22T18:19:05.042Z,101464.75
2019-03-22T18:22:08.475Z,101469.71
2019-03-22T18:25:11.814Z,101468.15
2019-03-22T18:28:15.129Z,101468.50
2019-03-22T18:31:18.527Z,101461.84
2019-03-22T18:34:21.864Z,101456.96
2019-03-22T18:37:25.215Z,101457.57
2019-03-22T18:40:28.530Z,101462.78
2019-03-22T18:43:31.878Z,101465.53
2019-03-22T18:46:35.213Z,101457.30
2019-03-22T18:49:38.537Z,101462.66
2019-03-22T18:52:41.876Z,101457.20
2019-03-22T18:55:45.254Z,101460.35
2019-03-22T18:58:48.604Z,101462.33
2019-03-22T19:01:52.007Z,101471.09
2019-03-22T19:04:55.305Z,101458.14
2019-03-22T19:07:58.642Z,101455.09
2019-03-22T19:11:01.968Z,101459.71
2019-03-22T19:14:05.301Z,101453.31
2019-03-22T19:17:08.606Z,101461.69
2019-03-22T19:20:12.964Z,101455.28
2019-03-22T19:23:16.297Z,101450.63
2019-03-22T19:26:19.585Z,101443.28
2019-03-22T19:29:22.913Z,101441.91
2019-03-22T19:32:26.254Z,101435.80
2019-03-22T19:35:29.692Z,101434.63
2019-03-22T19:38:33.016Z,101429.89
2019-03-22T19:41:36.331Z,101425.78
2019-03-22T19:44:39.844Z,101429.39
2019-03-22T19:47:43.455Z,101429.07
2019-03-22T19:50:46.764Z,101424.61
2019-03-22T19:53:50.087Z,101417.55
2019-03-22T19:56:53.422Z,101422.84
2019-03-22T19:59:56.750Z,101424.95
2019-03-22T20:03:00.133Z,101423.13
2019-03-22T20:06:03.450Z,101419.86
2019-03-22T20:09:08.894Z,101418.43
2019-03-22T20:12:12.209Z,101414.52
2019-03-22T20:15:15.540Z,101410.70
2019-03-22T20:18:18.857Z,101410.84
2019-03-22T20:21:22.179Z,101413.38
2019-03-22T20:24:25.543Z,101414.30
2019-03-22T20:27:28.877Z,101409.41
2019-03-22T20:30:32.204Z,101411.61
2019-03-22T20:33:35.559Z,101412.13
2019-03-22T20:36:38.875Z,101400.27
2019-03-22T20:39:42.232Z,101403.97
2019-03-22T20:42:45.533Z,101404.50
2019-03-22T20:45:48.909Z,101394.00
2019-03-22T20:48:52.502Z,101398.95
2019-03-22T20:51:55.806Z,101405.45
2019-03-22T20:54:59.152Z,101399.57
2019-03-22T20:58:02.455Z,101401.92
2019-03-22T21:01:25.659Z,101392.42
2019-03-22T21:04:29.089Z,101392.23
2019-03-22T21:07:32.474Z,101391.93
2019-03-22T21:10:35.838Z,101398.54
2019-03-22T21:13:39.170Z,101393.41
2019-03-22T21:16:42.500Z,101394.05
2019-03-22T21:19:46.202Z,101391.59
2019-03-22T21:22:49.914Z,101390.95
2019-03-22T21:25:55.302Z,101392.45
2019-03-22T21:28:58.890Z,101389.89
2019-03-22T21:32:02.378Z,101394.88
2019-03-22T21:35:07.075Z,101388.82
2019-03-22T21:38:11.359Z,101391.47
2019-03-22T21:41:14.866Z,101386.37
2019-03-22T21:44:18.652Z,101388.77
2019-03-22T21:47:21.987Z,101382.20
2019-03-22T21:50:25.335Z,101376.61
2019-03-22T21:53:28.663Z,101371.05
2019-03-22T21:56:32.018Z,101378.91
2019-03-22T21:59:35.328Z,101371.68
2019-03-22T22:02:38.661Z,101367.70
2019-03-22T22:05:47.758Z,101370.09
2019-03-22T22:08:47.107Z,101362.95
2019-03-22T22:11:50.436Z,101356.33
2019-03-22T22:14:54.113Z,101365.61
2019-03-22T22:17:57.433Z,101359.39
2019-03-22T22:21:00.914Z,101359.20
2019-03-22T22:24:04.918Z,101352.89
2019-03-22T22:27:13.819Z,101358.81
2019-03-22T22:30:13.458Z,101352.22
2019-03-22T22:33:16.789Z,101349.41
2019-03-22T22:36:20.098Z,101349.25
2019-03-22T22:39:23.431Z,101351.93
2019-03-22T22:42:26.765Z,101347.81
2019-03-22T22:45:30.062Z,101349.25
2019-03-22T22:48:33.404Z,101354.09
2019-03-22T22:51:36.713Z,101347.98
2019-03-22T22:54:40.018Z,101341.63
2019-03-22T22:57:43.370Z,101340.42
2019-03-22T23:00:47.150Z,101336.55
2019-03-22T23:03:50.550Z,101333.92
2019-03-22T23:06:53.909Z,101334.41
2019-03-22T23:09:57.182Z,101333.89
2019-03-22T23:13:00.515Z,101333.73
2019-03-22T23:16:03.821Z,101336.83
2019-03-22T23:19:07.207Z,101334.03
2019-03-22T23:22:10.541Z,101328.41
2019-03-22T23:25:13.864Z,101336.14
2019-03-22T23:28:17.196Z,101330.03
2019-03-22T23:31:20.649Z,101330.73
2019-03-22T23:34:23.968Z,101328.48
2019-03-22T23:37:27.308Z,101326.55
2019-03-22T23:40:30.680Z,101320.66
2019-03-22T23:43:34.006Z,101318.66
2019-03-22T23:46:37.306Z,101314.59
2019-03-22T23:49:40.638Z,101305.42
2019-03-22T23:52:43.960Z,101298.77
2019-03-22T23:55:47.262Z,101302.94
2019-03-22T23:58:50.585Z,101300.50
